createdAt,value
2018-12-19T00:01:40.345Z,89438.18
2018-12-19T00:04:09.632Z,89397.33
2018-12-19T00:06:38.862Z,89366.48
2018-12-19T00:09:08.675Z,89354.91
2018-12-19T00:11:38.087Z,89339.52
2018-12-19T00:14:07.545Z,89340.29
2018-12-19T00:16:36.825Z,89336.70
2018-12-19T00:19:06.079Z,89284.31
2018-12-19T00:21:35.393Z,89256.64
2018-12-19T00:24:04.845Z,89320.52
2018-12-19T00:26:34.092Z,89350.31
2018-12-19T00:29:04.405Z,89265.86
2018-12-19T00:31:33.935Z,89215.06
2018-12-19T00:34:03.990Z,89177.59
2018-12-19T00:36:34.542Z,89142.47
2018-12-19T00:39:09.498Z,89110.97
2018-12-19T00:41:36.808Z,89104.30
2018-12-19T00:44:06.171Z,89153.22
2018-12-19T00:46:35.627Z,89205.56
2018-12-19T00:49:04.916Z,89184.77
2018-12-19T00:51:34.128Z,89194.51
2018-12-19T00:54:03.369Z,89152.48
2018-12-19T00:56:32.635Z,89123.55
2018-12-19T00:59:02.803Z,89083.27
2018-12-19T01:01:32.847Z,89064.56
2018-12-19T01:04:02.135Z,89061.99
2018-12-19T01:06:31.481Z,89100.44
2018-12-19T01:09:01.077Z,89093.77
2018-12-19T01:11:30.371Z,89131.70
2018-12-19T01:14:00.794Z,89166.58
2018-12-19T01:16:30.142Z,89183.23
2018-12-19T01:18:59.398Z,89207.86
2018-12-19T01:21:28.608Z,89241.99
2018-12-19T01:23:57.809Z,89278.67
2018-12-19T01:26:27.341Z,89327.20
2018-12-19T01:28:56.715Z,89389.57
2018-12-19T01:31:25.976Z,89457.42
2018-12-19T01:33:55.255Z,89515.77
2018-12-19T01:36:24.738Z,89581.84
2018-12-19T01:38:54.097Z,89628.13
2018-12-19T01:41:23.402Z,89686.28
2018-12-19T01:43:52.701Z,89797.73
2018-12-19T01:46:22.016Z,89834.33
2018-12-19T01:48:51.236Z,89862.16
2018-12-19T01:51:20.885Z,89936.38
2018-12-19T01:53:50.308Z,89944.62
2018-12-19T01:56:19.506Z,89964.20
2018-12-19T01:58:48.836Z,89994.59
2018-12-19T02:01:18.088Z,90017.80
2018-12-19T02:03:47.783Z,90041.82
2018-12-19T02:06:17.043Z,90051.34
2018-12-19T02:08:46.326Z,90080.23
2018-12-19T02:11:15.635Z,90095.19
2018-12-19T02:13:44.878Z,90124.86
2018-12-19T02:16:14.117Z,90050.25
2018-12-19T02:18:43.311Z,90166.44
2018-12-19T02:21:12.896Z,90190.19
2018-12-19T02:23:42.106Z,90218.31
2018-12-19T02:26:11.472Z,90292.73
2018-12-19T02:28:41.570Z,90352.68
2018-12-19T02:31:10.976Z,90405.42
2018-12-19T02:33:40.174Z,90398.95
2018-12-19T02:36:09.385Z,90394.55
2018-12-19T02:38:38.685Z,90437.72
2018-12-19T02:41:07.937Z,90473.95
2018-12-19T02:43:37.148Z,90500.08
2018-12-19T02:46:06.374Z,90486.11
2018-12-19T02:48:36.583Z,90464.91
2018-12-19T02:51:05.921Z,90466.72
2018-12-19T02:53:35.192Z,90526.98
2018-12-19T02:56:04.469Z,90594.28
2018-12-19T02:58:33.853Z,90609.56
2018-12-19T03:01:03.217Z,90627.42
2018-12-19T03:03:32.502Z,90648.91
2018-12-19T03:06:01.782Z,90669.13
2018-12-19T03:08:31.643Z,90680.52
2018-12-19T03:11:00.978Z,90687.77
2018-12-19T03:13:30.809Z,90786.23
2018-12-19T03:16:00.802Z,90851.81
2018-12-19T03:18:30.162Z,90895.66
2018-12-19T03:20:59.951Z,90886.06
2018-12-19T03:23:30.204Z,90897.47
2018-12-19T03:25:59.437Z,90894.09
2018-12-19T03:28:28.633Z,90916.40
2018-12-19T03:30:57.857Z,90908.87
2018-12-19T03:33:27.730Z,90962.31
2018-12-19T03:35:56.975Z,90967.77
2018-12-19T03:38:26.230Z,91013.72
2018-12-19T03:40:55.597Z,91047.20
2018-12-19T03:43:24.836Z,91100.70
2018-12-19T03:45:54.087Z,91099.66
2018-12-19T03:48:28.453Z,91118.88
2018-12-19T03:50:57.800Z,91105.89
2018-12-19T03:53:28.007Z,91102.00
2018-12-19T03:55:57.260Z,91116.02
2018-12-19T03:58:26.602Z,91104.08
2018-12-19T04:00:55.868Z,91094.73
2018-12-19T04:03:25.179Z,91077.83
2018-12-19T04:05:54.507Z,91096.29
2018-12-19T04:08:23.721Z,91110.05
2018-12-19T04:10:52.987Z,91140.69
2018-12-19T04:13:22.268Z,91179.13
2018-12-19T04:15:51.619Z,91197.09
2018-12-19T04:18:20.870Z,91210.86
2018-12-19T04:20:50.820Z,91237.37
2018-12-19T04:23:20.101Z,91193.97
2018-12-19T04:25:49.308Z,91200.98
2018-12-19T04:28:18.580Z,91189.03
2018-12-19T04:30:47.856Z,91202.55
2018-12-19T04:33:17.133Z,91184.36
2018-12-19T04:35:46.689Z,91170.05
2018-12-19T04:38:16.106Z,91169.00
2018-12-19T04:40:45.427Z,91170.05
2018-12-19T04:43:14.695Z,91171.08
2018-12-19T04:45:44.072Z,91216.06
2018-12-19T04:48:13.445Z,91214.23
2018-12-19T04:50:42.679Z,91212.16
2018-12-19T04:53:14.541Z,91260.75
2018-12-19T04:55:43.848Z,91236.59
2018-12-19T04:58:13.158Z,91238.14
2018-12-19T05:00:42.497Z,91305.23
2018-12-19T05:03:11.880Z,91316.67
2018-12-19T05:05:41.209Z,91313.30
2018-12-19T05:08:10.456Z,91342.68
2018-12-19T05:10:39.734Z,91252.33
2018-12-19T05:13:15.347Z,91382.73
2018-12-19T05:15:45.638Z,91386.37
2018-12-19T05:18:14.879Z,91394.17
2018-12-19T05:20:45.122Z,91385.07
2018-12-19T05:23:14.436Z,91416.05
2018-12-19T05:25:43.730Z,91446.23
2018-12-19T05:28:12.976Z,91439.73
2018-12-19T05:30:42.291Z,91432.45
2018-12-19T05:33:11.499Z,91412.16
2018-12-19T05:35:40.828Z,91382.73
2018-12-19T05:38:10.079Z,91393.91
2018-12-19T05:40:39.390Z,91456.65
2018-12-19T05:43:23.349Z,91450.14
2018-12-19T05:45:52.595Z,91418.13
2018-12-19T05:48:21.846Z,91422.56
2018-12-19T05:50:51.116Z,91399.12
2018-12-19T05:53:20.343Z,91387.41
2018-12-19T05:55:49.564Z,91411.11
2018-12-19T05:58:18.821Z,91443.89
2018-12-19T06:00:48.072Z,91456.13
2018-12-19T06:03:17.344Z,91484.23
2018-12-19T06:05:47.244Z,91488.13
2018-12-19T06:08:16.859Z,91549.87
2018-12-19T06:10:46.152Z,91566.80
2018-12-19T06:13:15.461Z,91592.58
2018-12-19T06:15:44.726Z,91583.72
2018-12-19T06:18:13.960Z,91589.19
2018-12-19T06:20:43.281Z,91627.52
2018-12-19T06:23:15.211Z,91605.86
2018-12-19T06:25:44.458Z,91640.02
2018-12-19T06:28:13.866Z,91648.09
2018-12-19T06:30:43.795Z,91620.45
2018-12-19T06:33:13.045Z,91658.27
2018-12-19T06:35:42.321Z,91643.41
2018-12-19T06:38:11.936Z,91637.93
2018-12-19T06:40:41.298Z,91632.20
2018-12-19T06:43:10.555Z,91620.45
2018-12-19T06:45:39.880Z,91624.87
2018-12-19T06:48:09.111Z,91637.41
2018-12-19T06:50:38.335Z,91589.71
2018-12-19T06:53:07.555Z,91639.23
2018-12-19T06:55:36.870Z,91632.40
2018-12-19T06:58:06.105Z,91663.73
2018-12-19T07:00:35.750Z,91710.90
2018-12-19T07:03:05.034Z,91686.39
2018-12-19T07:05:34.307Z,91667.89
2018-12-19T07:08:03.611Z,91689.00
2018-12-19T07:10:38.984Z,91710.64
2018-12-19T07:13:04.747Z,91741.16
2018-12-19T07:15:34.018Z,91789.91
2018-12-19T07:18:03.379Z,91797.22
2018-12-19T07:20:34.339Z,91798.78
2018-12-19T07:23:03.572Z,91838.95
2018-12-19T07:25:33.005Z,91867.42
2018-12-19T07:28:02.356Z,91838.95
2018-12-19T07:30:31.825Z,91807.13
2018-12-19T07:33:01.118Z,91828.00
2018-12-19T07:35:30.373Z,91843.12
2018-12-19T07:37:59.642Z,91833.98
2018-12-19T07:40:29.369Z,91836.86
2018-12-19T07:42:58.649Z,91811.04
2018-12-19T07:45:28.024Z,91876.55
2018-12-19T07:47:57.793Z,91853.06
2018-12-19T07:50:27.133Z,91805.56
2018-12-19T07:52:56.432Z,91807.64
2018-12-19T07:55:27.592Z,91776.09
2018-12-19T07:57:56.824Z,91818.08
2018-12-19T08:00:27.586Z,91813.64
2018-12-19T08:02:57.089Z,91828.25
2018-12-19T08:05:26.877Z,91853.33
2018-12-19T08:07:57.405Z,91875.23
2018-12-19T08:10:26.733Z,91860.87
2018-12-19T08:12:55.954Z,91895.59
2018-12-19T08:15:25.225Z,91915.68
2018-12-19T08:17:54.817Z,91914.64
2018-12-19T08:20:24.073Z,91962.64
2018-12-19T08:22:53.435Z,91973.41
2018-12-19T08:25:22.662Z,92015.44
2018-12-19T08:27:51.986Z,92007.60
2018-12-19T08:30:21.930Z,92015.19
2018-12-19T08:32:51.279Z,92038.69
2018-12-19T08:35:21.142Z,92020.15
2018-12-19T08:37:50.434Z,92018.06
2018-12-19T08:40:19.700Z,92038.94
2018-12-19T08:42:48.952Z,92047.83
2018-12-19T08:45:18.502Z,92032.69
2018-12-19T08:47:48.034Z,92056.19
2018-12-19T08:50:17.610Z,92042.61
2018-12-19T08:52:46.839Z,92004.20
2018-12-19T08:55:16.115Z,92039.98
2018-12-19T08:57:46.243Z,92031.11
2018-12-19T09:00:16.312Z,92012.83
2018-12-19T09:02:45.598Z,91995.59
2018-12-19T09:05:16.625Z,91997.94
2018-12-19T09:07:46.098Z,91985.66
2018-12-19T09:10:15.370Z,92025.36
2018-12-19T09:12:44.800Z,92078.41
2018-12-19T09:15:16.084Z,92096.97
2018-12-19T09:17:46.300Z,92119.44
2018-12-19T09:20:16.303Z,92120.48
2018-12-19T09:22:46.751Z,92084.16
2018-12-19T09:25:16.022Z,92078.68
2018-12-19T09:27:45.299Z,92071.36
2018-12-19T09:30:14.831Z,92078.68
2018-12-19T09:32:44.180Z,92069.27
2018-12-19T09:35:13.541Z,92070.57
2018-12-19T09:37:42.890Z,92079.72
2018-12-19T09:40:12.277Z,92146.09
2018-12-19T09:42:41.532Z,92155.50
2018-12-19T09:45:10.833Z,92182.19
2018-12-19T09:47:40.087Z,92208.59
2018-12-19T09:50:09.787Z,92243.64
2018-12-19T09:52:39.122Z,92266.92
2018-12-19T09:55:08.390Z,92287.34
2018-12-19T09:57:37.855Z,92235.26
2018-12-19T10:00:11.627Z,92208.61
2018-12-19T10:02:41.580Z,92207.28
2018-12-19T10:05:10.903Z,92209.89
2018-12-19T10:07:40.394Z,92207.55
2018-12-19T10:10:09.774Z,92218.80
2018-12-19T10:12:39.005Z,92308.80
2018-12-19T10:15:08.533Z,92283.12
2018-12-19T10:17:40.939Z,92289.18
2018-12-19T10:20:09.274Z,92304.08
2018-12-19T10:22:39.272Z,92340.46
2018-12-19T10:25:15.676Z,92336.25
2018-12-19T10:27:44.963Z,92311.41
2018-12-19T10:30:14.733Z,92305.66
2018-12-19T10:32:44.107Z,92318.72
2018-12-19T10:35:13.537Z,92306.44
2018-12-19T10:37:42.774Z,92320.03
2018-12-19T10:40:12.637Z,92356.69
2018-12-19T10:42:41.882Z,92339.16
2018-12-19T10:45:12.152Z,92336.77
2018-12-19T10:47:42.285Z,92375.23
2018-12-19T10:50:11.714Z,92389.10
2018-12-19T10:52:40.981Z,92397.23
2018-12-19T10:55:10.435Z,92395.44
2018-12-19T10:57:39.680Z,92384.16
2018-12-19T11:00:17.742Z,92416.10
2018-12-19T11:02:49.093Z,92422.38
2018-12-19T11:05:19.101Z,92494.41
2018-12-19T11:07:48.291Z,92505.97
2018-12-19T11:10:17.642Z,92454.07
2018-12-19T11:12:46.899Z,92453.80
2018-12-19T11:15:16.154Z,92476.32
2018-12-19T11:17:45.549Z,92502.00
2018-12-19T11:20:14.857Z,92480.78
2018-12-19T11:22:44.678Z,92492.56
2018-12-19T11:25:13.972Z,92537.13
2018-12-19T11:27:43.796Z,92518.79
2018-12-19T11:30:13.092Z,92504.09
2018-12-19T11:32:43.211Z,92511.72
2018-12-19T11:35:12.435Z,92491.25
2018-12-19T11:37:42.384Z,92484.97
2018-12-19T11:40:11.732Z,92500.67
2018-12-19T11:42:41.168Z,92503.55
2018-12-19T11:45:10.425Z,92549.70
2018-12-19T11:47:39.729Z,92514.33
2018-12-19T11:50:09.398Z,92493.59
2018-12-19T11:52:39.369Z,92511.41
2018-12-19T11:55:08.918Z,92514.59
2018-12-19T11:57:38.580Z,92517.46
2018-12-19T12:00:09.633Z,92527.17
2018-12-19T12:02:39.287Z,92537.38
2018-12-19T12:05:08.627Z,92507.22
2018-12-19T12:07:38.003Z,92506.44
2018-12-19T12:10:08.595Z,92467.94
2018-12-19T12:12:37.924Z,92499.88
2018-12-19T12:15:07.913Z,92460.88
2018-12-19T12:17:37.635Z,92464.78
2018-12-19T12:20:08.562Z,92435.73
2018-12-19T12:22:38.050Z,92418.72
2018-12-19T12:25:07.636Z,92437.05
2018-12-19T12:27:36.917Z,92410.09
2018-12-19T12:30:06.866Z,92416.63
2018-12-19T12:32:36.053Z,92412.16
2018-12-19T12:35:07.068Z,92409.55
2018-12-19T12:37:36.317Z,92415.56
2018-12-19T12:40:06.628Z,92404.27
2018-12-19T12:42:35.972Z,92421.58
2018-12-19T12:45:05.882Z,92406.94
2018-12-19T12:47:35.154Z,92406.38
2018-12-19T12:50:05.478Z,92411.64
2018-12-19T12:52:34.917Z,92403.76
2018-12-19T12:55:04.384Z,92405.31
2018-12-19T12:57:34.177Z,92397.20
2018-12-19T13:00:03.582Z,92391.72
2018-12-19T13:02:32.813Z,92344.88
2018-12-19T13:05:02.020Z,92348.27
2018-12-19T13:07:31.369Z,92405.88
2018-12-19T13:10:00.581Z,92394.59
2018-12-19T13:12:29.816Z,92411.89
2018-12-19T13:14:59.305Z,92389.62
2018-12-19T13:17:29.136Z,92402.45
2018-12-19T13:19:58.386Z,92379.94
2018-12-19T13:22:27.636Z,92395.90
2018-12-19T13:24:56.843Z,92388.05
2018-12-19T13:27:26.203Z,92399.84
2018-12-19T13:29:55.435Z,92394.08
2018-12-19T13:32:24.708Z,92399.81
2018-12-19T13:34:54.481Z,92360.02
2018-12-19T13:37:24.311Z,92338.05
2018-12-19T13:39:53.737Z,92314.77
2018-12-19T13:42:23.080Z,92353.49
2018-12-19T13:44:52.336Z,92382.03
2018-12-19T13:47:21.899Z,92356.10
2018-12-19T13:49:51.959Z,92364.75
2018-12-19T13:52:21.221Z,92392.23
2018-12-19T13:54:50.558Z,92377.58
2018-12-19T13:57:20.560Z,92364.75
2018-12-19T13:59:49.955Z,92374.42
2018-12-19T14:02:19.456Z,92373.39
2018-12-19T14:04:48.922Z,92367.90
2018-12-19T14:07:18.286Z,92369.45
2018-12-19T14:09:49.796Z,92372.60
2018-12-19T14:12:19.035Z,92350.61
2018-12-19T14:14:49.075Z,92330.98
2018-12-19T14:17:19.011Z,92346.16
2018-12-19T14:19:48.437Z,92378.09
2018-12-19T14:22:17.686Z,92394.33
2018-12-19T14:24:46.979Z,92394.59
2018-12-19T14:27:17.318Z,92391.17
2018-12-19T14:29:47.528Z,92368.14
2018-12-19T14:32:17.071Z,92396.66
2018-12-19T14:34:47.804Z,92383.07
2018-12-19T14:37:17.381Z,92384.64
2018-12-19T14:39:47.100Z,92405.58
2018-12-19T14:42:19.248Z,92401.13
2018-12-19T14:44:47.808Z,92416.08
2018-12-19T14:47:17.129Z,92410.80
2018-12-19T14:49:47.127Z,92424.19
2018-12-19T14:52:16.512Z,92396.15
2018-12-19T14:54:45.810Z,92388.30
2018-12-19T14:57:15.349Z,92416.87
2018-12-19T14:59:45.446Z,92412.11
2018-12-19T15:02:15.699Z,92417.11
2018-12-19T15:04:48.923Z,92426.55
2018-12-19T15:07:21.367Z,92423.94
2018-12-19T15:09:51.368Z,92426.55
2018-12-19T15:12:25.768Z,92397.97
2018-12-19T15:14:52.591Z,92382.53
2018-12-19T15:17:21.904Z,92413.98
2018-12-19T15:19:51.685Z,92379.92
2018-12-19T15:22:20.961Z,92411.10
2018-12-19T15:24:50.203Z,92438.57
2018-12-19T15:27:19.538Z,92417.11
2018-12-19T15:29:49.073Z,92433.35
2018-12-19T15:32:18.497Z,92410.80
2018-12-19T15:34:48.556Z,92434.14
2018-12-19T15:37:18.046Z,92435.17
2018-12-19T15:39:47.307Z,92443.03
2018-12-19T15:42:16.512Z,92423.39
2018-12-19T15:44:45.789Z,92420.52
2018-12-19T15:47:15.045Z,92405.04
2018-12-19T15:49:45.290Z,92454.05
2018-12-19T15:52:15.072Z,92454.02
2018-12-19T15:54:44.668Z,92444.34
2018-12-19T15:57:14.113Z,92417.91
2018-12-19T15:59:45.179Z,92427.86
2018-12-19T16:02:16.019Z,92461.09
2018-12-19T16:04:48.514Z,92445.40
2018-12-19T16:07:18.510Z,92436.75
2018-12-19T16:09:48.073Z,92422.86
2018-12-19T16:12:17.365Z,92439.11
2018-12-19T16:14:52.582Z,92429.92
2018-12-19T16:17:21.873Z,92405.55
2018-12-19T16:19:52.228Z,92433.84
2018-12-19T16:22:33.821Z,92430.73
2018-12-19T16:25:03.226Z,92428.38
2018-12-19T16:27:32.536Z,92448.53
2018-12-19T16:30:02.107Z,92407.66
2018-12-19T16:32:31.356Z,92458.21
2018-12-19T16:35:01.408Z,92444.34
2018-12-19T16:37:30.644Z,92427.31
2018-12-19T16:40:00.903Z,92454.53
2018-12-19T16:42:30.276Z,92436.48
2018-12-19T16:45:00.593Z,92461.09
2018-12-19T16:47:29.803Z,92450.62
2018-12-19T16:49:59.197Z,92459.52
2018-12-19T16:52:28.729Z,92456.11
2018-12-19T16:54:58.008Z,92439.87
2018-12-19T16:57:27.303Z,92443.80
2018-12-19T16:59:56.948Z,92427.59
2018-12-19T17:02:26.452Z,92438.57
2018-12-19T17:04:55.810Z,92445.38
2018-12-19T17:07:25.079Z,92404.50
2018-12-19T17:09:54.910Z,92409.23
2018-12-19T17:12:26.109Z,92425.41
2018-12-19T17:14:55.407Z,92455.05
2018-12-19T17:17:24.909Z,92449.56
2018-12-19T17:19:54.433Z,92474.45
2018-12-19T17:22:24.194Z,92482.28
2018-12-19T17:25:00.285Z,92478.12
2018-12-19T17:27:29.953Z,92464.73
2018-12-19T17:29:59.436Z,92467.11
2018-12-19T17:32:29.290Z,92439.09
2018-12-19T17:34:58.929Z,92484.11
2018-12-19T17:37:29.000Z,92470.50
2018-12-19T17:39:58.627Z,92482.02
2018-12-19T17:42:28.222Z,92476.00
2018-12-19T17:44:58.387Z,92477.30
2018-12-19T17:47:28.132Z,92514.49
2018-12-19T17:49:57.656Z,92501.68
2018-12-19T17:52:27.729Z,92498.52
2018-12-19T17:54:57.248Z,92503.77
2018-12-19T17:57:27.914Z,92518.44
2018-12-19T17:59:57.501Z,92496.67
2018-12-19T18:02:28.121Z,92533.92
2018-12-19T18:04:57.504Z,92541.77
2018-12-19T18:07:27.754Z,92518.44
2018-12-19T18:09:58.285Z,92518.69
2018-12-19T18:12:27.832Z,92499.04
2018-12-19T18:14:57.739Z,92556.19
2018-12-19T18:17:27.353Z,92528.12
2018-12-19T18:19:58.030Z,92532.05
2018-12-19T18:22:28.394Z,92574.80
2018-12-19T18:24:58.270Z,92600.72
2018-12-19T18:27:28.089Z,92577.66
2018-12-19T18:29:58.522Z,92628.76
2018-12-19T18:32:28.566Z,92624.05
2018-12-19T18:34:58.541Z,92629.03
2018-12-19T18:37:30.401Z,92641.88
2018-12-19T18:39:59.973Z,92632.45
2018-12-19T18:42:29.708Z,92582.64
2018-12-19T18:45:02.005Z,92653.97
2018-12-19T18:47:31.594Z,92679.92
2018-12-19T18:50:01.471Z,92630.09
2018-12-19T18:52:31.242Z,92672.58
2018-12-19T18:55:01.733Z,92690.93
2018-12-19T18:57:31.457Z,92688.05
2018-12-19T19:00:01.148Z,92690.14
2018-12-19T19:02:30.867Z,92692.51
2018-12-19T19:05:01.163Z,92685.43
2018-12-19T19:07:33.408Z,92673.36
2018-12-19T19:10:03.298Z,92674.95
2018-12-19T19:12:32.941Z,92685.43
2018-12-19T19:15:03.146Z,92680.69
2018-12-19T19:17:32.758Z,92652.39
2018-12-19T19:20:02.488Z,92626.14
2018-12-19T19:22:32.122Z,92657.38
2018-12-19T19:25:01.728Z,92654.22
2018-12-19T19:27:33.034Z,92703.78
2018-12-19T19:30:02.939Z,92730.81
2018-12-19T19:32:32.590Z,92722.91
2018-12-19T19:35:02.403Z,92718.44
2018-12-19T19:37:32.350Z,92678.08
2018-12-19T19:40:05.384Z,92691.45
2018-12-19T19:42:35.171Z,92720.30
2018-12-19T19:45:05.278Z,92713.76
2018-12-19T19:47:34.973Z,92702.72
2018-12-19T19:50:05.890Z,92717.13
2018-12-19T19:52:35.531Z,92680.96
2018-12-19T19:55:05.377Z,92686.46
2018-12-19T19:57:35.628Z,92680.69
2018-12-19T20:00:06.392Z,92690.66
2018-12-19T20:02:36.016Z,92686.19
2018-12-19T20:05:06.402Z,92742.58
2018-12-19T20:07:37.730Z,92711.11
2018-12-19T20:10:07.818Z,92727.65
2018-12-19T20:12:38.456Z,92716.09
2018-12-19T20:15:08.334Z,92720.56
2018-12-19T20:17:37.980Z,92742.06
2018-12-19T20:20:07.761Z,92720.84
2018-12-19T20:22:39.203Z,92746.53
2018-12-19T20:25:08.872Z,92727.11
2018-12-19T20:27:40.396Z,92703.76
2018-12-19T20:30:11.861Z,92718.98
2018-12-19T20:32:42.329Z,92735.77
2018-12-19T20:35:12.505Z,92715.58
2018-12-19T20:37:43.994Z,92718.20
2018-12-19T20:40:14.007Z,92732.61
2018-12-19T20:42:44.089Z,92702.20
2018-12-19T20:45:14.562Z,92743.38
2018-12-19T20:47:45.513Z,92736.80
2018-12-19T20:50:15.274Z,92723.95
2018-12-19T20:52:45.498Z,92722.39
2018-12-19T20:55:15.629Z,92714.25
2018-12-19T20:57:45.920Z,92719.14
2018-12-19T21:00:15.716Z,92729.72
2018-12-19T21:02:45.717Z,92722.66
2018-12-19T21:05:15.430Z,92756.47
2018-12-19T21:07:46.053Z,92721.84
2018-12-19T21:10:16.112Z,92724.22
2018-12-19T21:12:47.404Z,92750.97
2018-12-19T21:15:17.873Z,92747.56
2018-12-19T21:17:53.467Z,92744.16
2018-12-19T21:20:23.187Z,92762.50
2018-12-19T21:22:52.941Z,92775.63
2018-12-19T21:25:24.995Z,92791.38
2018-12-19T21:27:54.986Z,92781.41
2018-12-19T21:30:27.056Z,92773.02
2018-12-19T21:32:56.778Z,92784.30
2018-12-19T21:35:26.506Z,92802.39
2018-12-19T21:37:56.208Z,92837.31
2018-12-19T21:40:25.899Z,92832.84
2018-12-19T21:42:56.797Z,92827.86
2018-12-19T21:45:26.212Z,92850.16
2018-12-19T21:47:55.574Z,92847.02
2018-12-19T21:50:25.794Z,92853.32
2018-12-19T21:52:55.169Z,92843.34
2018-12-19T21:55:24.571Z,92863.81
2018-12-19T21:57:53.868Z,92865.64
2018-12-19T22:00:25.325Z,92865.91
2018-12-19T22:02:54.862Z,92863.30
2018-12-19T22:05:24.173Z,92863.57
2018-12-19T22:07:56.135Z,92883.02
2018-12-19T22:10:26.311Z,92877.20
2018-12-19T22:12:56.159Z,92853.32
2018-12-19T22:15:25.758Z,92869.84
2018-12-19T22:18:00.542Z,92868.80
2018-12-19T22:20:30.035Z,92861.95
2018-12-19T22:22:59.557Z,92861.44
2018-12-19T22:25:29.640Z,92884.33
2018-12-19T22:27:58.969Z,92877.45
2018-12-19T22:30:29.322Z,92869.32
2018-12-19T22:32:58.723Z,92866.95
2018-12-19T22:35:28.558Z,92866.67
2018-12-19T22:37:58.134Z,92876.14
2018-12-19T22:40:27.453Z,92871.66
2018-12-19T22:42:56.670Z,92847.54
2018-12-19T22:45:27.164Z,92869.84
2018-12-19T22:47:56.737Z,92858.55
2018-12-19T22:50:26.355Z,92874.04
2018-12-19T22:52:55.621Z,92860.65
2018-12-19T22:55:24.900Z,92853.05
2018-12-19T22:57:54.232Z,92843.31
2018-12-19T23:00:23.754Z,92855.94
2018-12-19T23:02:58.333Z,92829.68
2018-12-19T23:05:32.852Z,92837.56
2018-12-19T23:08:02.224Z,92824.17
2018-12-19T23:10:31.496Z,92845.68
2018-12-19T23:13:01.830Z,92843.06
2018-12-19T23:15:31.132Z,92834.13
2018-12-19T23:18:33.895Z,92852.25
2018-12-19T23:21:10.669Z,92834.67
2018-12-19T23:23:40.796Z,92833.09
2018-12-19T23:26:12.882Z,92823.63
2018-12-19T23:28:42.832Z,92837.02
2018-12-19T23:31:12.323Z,92848.81
2018-12-19T23:33:42.087Z,92834.39
2018-12-19T23:36:11.387Z,92832.02
2018-12-19T23:38:41.428Z,92803.43
2018-12-19T23:41:10.842Z,92829.92
2018-12-19T23:43:40.195Z,92823.87
2018-12-19T23:46:09.397Z,92824.14
2018-12-19T23:48:39.439Z,92823.87
2018-12-19T23:51:09.335Z,92827.30
2018-12-19T23:53:39.325Z,92827.03
2018-12-19T23:56:08.826Z,92831.50
2018-12-19T23:58:38.060Z,92823.87
